Informes de METAR cercanos

 

LEXJ - Santander/Parayas, Spain
Distance from station: ESE 6km
Actualización: 24/07/2021 02:00
Cubierto
Cubierto
 Viento del ONO
Viento: ONO 9 km/h
Temperatura: 19°C
Rocío: 16°C
Humedad: 83%
Barómetro: 1014 hPa
Clouds: Cubierto
Visibility: 10 km
Cloud details: Cubierto 792 m
2021/07/24 00:00 LEXJ 240000Z AUTO 29005KT 270V340 9999 OVC026 19/16 Q1014
LEBB - Bilbao/Sondica, Spain
Distance from station: ESE 80km
Actualización: 24/07/2021 02:00
Muy nuboso
Muy nuboso
 Viento del E
Viento: E 6 km/h
Temperatura: 17°C
Rocío: 16°C
Humedad: 94%
Barómetro: 1014 hPa
Clouds: Muy nuboso
Visibility: 10 km
Cloud details: Muy nuboso 1737 m
2021/07/24 00:00 LEBB 240000Z AUTO 09003KT 070V130 9999 BKN057 17/16 Q1014
 
LEBL - Barcelona Airpor, Spain
Distance from station: ESE 726km
Actualización: 24/07/2021 02:00
Despejado
Despejado
 Viento del varies
Viento: varies 4 km/h
Temperatura: 24°C
Rocío: 20°C
Humedad: 78%
Barómetro: 1010 hPa
Resumen: Despejado
Visibility: greater than 10 km
2021/07/24 00:00 LEBL 240000Z VRB02KT CAVOK 24/20 Q1010 NOSIG
LEMD - Madrid/Barajas, Spain
Distance from station: S 325km
Actualización: 24/07/2021 02:00
Despejado
Despejado
 Viento del O
Viento: O 7 km/h
Temperatura: 23°C
Rocío: 6°C
Humedad: 33%
Barómetro: 1013 hPa
Resumen: Despejado
Visibility: greater than 10 km
2021/07/24 00:00 LEMD 240000Z 27004KT CAVOK 23/06 Q1013 NOSIG
 
LPPT - Lisbon/Portela, Portugal
Distance from station: SO 663km
Actualización: 24/07/2021 02:00
Despejado
Despejado
 Viento del NNO
Viento: NNO 13 km/h
Temperatura: 18°C
Rocío: 15°C
Humedad: 83%
Barómetro: 1016 hPa
Resumen: Despejado
Visibility: greater than 10 km
2021/07/24 00:00 LPPT 240000Z 34007KT CAVOK 18/15 Q1016
LECO - La Coruna/Alvedr, Spain
Distance from station: O 349km
Actualización: 24/07/2021 02:00
Few Clouds
Few Clouds
 Viento del S
Viento: S 11 km/h
Temperatura: 17°C
Rocío: 17°C
Humedad: 100%
Barómetro: 1014 hPa
Clouds: Few Clouds
Visibility: 10 km
Cloud details: Few Clouds 1494 m
2021/07/24 00:00 LECO 240000Z AUTO 19006KT 9999 FEW049 17/17 Q1014
 
LEST - Santiago/Labacol, Spain
Distance from station: O 358km
Actualización: 24/07/2021 02:00
Muy nuboso
Muy nuboso
 Viento del SO
Viento: SO 9 km/h
Temperatura: 15°C
Rocío: 14°C
Humedad: 94%
Barómetro: 1016 hPa
Clouds: Muy nuboso
Visibility: 10 km
Cloud details: Muy nuboso 152 m
2021/07/24 00:00 LEST 240000Z 22005KT 190V270 9999 BKN005 15/14 Q1016 NOSIG
EBBR - Brussels International Airport, Belgium
Distance from station: O 1339km
Actualización: 24/07/2021 02:20
Despejado
Despejado
 Viento del ENE
Viento: ENE 4 km/h
Temperatura: 16°C
Rocío: 14°C
Humedad: 88%
Barómetro: 1012 hPa
Resumen: Despejado
Visibility: greater than 10 km
2021/07/24 00:20 EBBR 240020Z 06002KT CAVOK 16/14 Q1012 NOSIG